Terminal Aerodrome Forecast
Issued by NWS Billings, MT

Home | Current Version | Previous Version | Text Only | Print | Product List | Glossary On
Versions: 1 2 3 4 5 6 7 8 9 10 11 12 13 14 15 16 17 18 19 20 21 22 23 24 25 26
000
FTUS45 KBYZ 061126
TAFMLS
TAF
KMLS 061126Z 0612/0712 34011KT P6SM VCSH BKN070
     FM061600 33016G25KT P6SM -SHRA BKN025 OVC050
     FM070000 35011KT P6SM OVC050=

USA.gov is the U.S. government's official web portal to all federal, state and local government web resources and services.